Terminal Aerodrome Forecast
Issued by NWS Cleveland, OH

Home | Current Version | Previous Version | Text Only | Print | Product List | Glossary Off
Versions: 1 2 3 4 5 6 7 8 9 10 11 12 13 14 15 16 17 18 19 20 21 22 23 24 25 26 27 28 29 30 31

000
FTUS41 KCLE 252200 AAB
TAFTOL
TAF AMD
KTOL 252204Z 2522/2618 05015G25KT 5SM -SN OVC035
      TEMPO 2522/2602 2SM -SN OVC012
     FM260200 03015G25KT 4SM -SN BR OVC015
     FM260600 02012KT P6SM OVC025
     FM261000 01010KT P6SM OVC250
     FM261700 01008KT P6SM OVC025=

USA.gov is the U.S. government's official web portal to all federal, state and local government web resources and services.